sensor_id;sensor_type;location;lat;lon;timestamp;P1;durP1;ratioP1;P2;durP2;ratioP2
7557;SDS011;3820;51.098;13.716;2022-10-16T00:01:17;10.07;;;4.80;;
7557;SDS011;3820;51.098;13.716;2022-10-16T00:03:47;11.18;;;5.13;;
7557;SDS011;3820;51.098;13.716;2022-10-16T00:06:14;9.80;;;5.40;;
7557;SDS011;3820;51.098;13.716;2022-10-16T00:08:44;8.30;;;4.10;;
7557;SDS011;3820;51.098;13.716;2022-10-16T00:11:12;11.15;;;5.53;;
7557;SDS011;3820;51.098;13.716;2022-10-16T00:13:43;8.63;;;4.85;;
7557;SDS011;3820;51.098;13.716;2022-10-16T00:16:10;9.15;;;4.28;;
7557;SDS011;3820;51.098;13.716;2022-10-16T00:18:38;8.77;;;4.97;;
7557;SDS011;3820;51.098;13.716;2022-10-16T00:21:06;10.45;;;4.72;;
7557;SDS011;3820;51.098;13.716;2022-10-16T00:23:34;9.75;;;5.35;;
7557;SDS011;3820;51.098;13.716;2022-10-16T00:26:06;8.02;;;4.20;;
7557;SDS011;3820;51.098;13.716;2022-10-16T00:28:35;9.20;;;4.93;;
7557;SDS011;3820;51.098;13.716;2022-10-16T00:31:02;8.15;;;4.40;;
7557;SDS011;3820;51.098;13.716;2022-10-16T00:33:30;8.57;;;4.50;;
7557;SDS011;3820;51.098;13.716;2022-10-16T00:36:00;7.57;;;4.03;;
7557;SDS011;3820;51.098;13.716;2022-10-16T00:38:28;9.32;;;5.03;;
7557;SDS011;3820;51.098;13.716;2022-10-16T00:40:55;7.63;;;4.07;;
7557;SDS011;3820;51.098;13.716;2022-10-16T00:43:33;7.28;;;3.90;;
7557;SDS011;3820;51.098;13.716;2022-10-16T00:46:00;7.10;;;4.18;;
7557;SDS011;3820;51.098;13.716;2022-10-16T00:48:28;8.10;;;4.25;;
7557;SDS011;3820;51.098;13.716;2022-10-16T00:50:56;6.97;;;3.67;;
7557;SDS011;3820;51.098;13.716;2022-10-16T00:53:23;6.20;;;3.80;;
7557;SDS011;3820;51.098;13.716;2022-10-16T00:55:51;8.70;;;3.90;;
7557;SDS011;3820;51.098;13.716;2022-10-16T00:58:18;7.68;;;3.78;;
7557;SDS011;3820;51.098;13.716;2022-10-16T01:00:44;15.90;;;5.07;;
7557;SDS011;3820;51.098;13.716;2022-10-16T01:03:24;7.60;;;3.97;;
7557;SDS011;3820;51.098;13.716;2022-10-16T01:08:48;7.53;;;4.18;;
7557;SDS011;3820;51.098;13.716;2022-10-16T01:12:05;12.15;;;5.50;;
7557;SDS011;3820;51.098;13.716;2022-10-16T01:14:18;7.97;;;4.00;;
7557;SDS011;3820;51.098;13.716;2022-10-16T01:16:52;7.53;;;4.78;;
7557;SDS011;3820;51.098;13.716;2022-10-16T01:19:38;10.15;;;4.65;;
7557;SDS011;3820;51.098;13.716;2022-10-16T01:22:12;7.45;;;4.28;;
7557;SDS011;3820;51.098;13.716;2022-10-16T01:24:40;9.05;;;4.45;;
7557;SDS011;3820;51.098;13.716;2022-10-16T01:27:15;8.38;;;4.80;;
7557;SDS011;3820;51.098;13.716;2022-10-16T01:30:04;9.02;;;4.78;;
7557;SDS011;3820;51.098;13.716;2022-10-16T01:32:37;8.57;;;4.95;;
7557;SDS011;3820;51.098;13.716;2022-10-16T01:40:23;5.63;;;3.53;;
7557;SDS011;3820;51.098;13.716;2022-10-16T01:42:59;7.45;;;4.25;;
7557;SDS011;3820;51.098;13.716;2022-10-16T01:45:29;8.73;;;4.97;;
7557;SDS011;3820;51.098;13.716;2022-10-16T01:47:56;8.57;;;3.95;;
7557;SDS011;3820;51.098;13.716;2022-10-16T01:50:24;8.43;;;4.38;;
7557;SDS011;3820;51.098;13.716;2022-10-16T01:52:51;9.43;;;4.40;;
7557;SDS011;3820;51.098;13.716;2022-10-16T01:55:20;8.50;;;4.60;;
7557;SDS011;3820;51.098;13.716;2022-10-16T01:57:49;8.73;;;4.45;;
7557;SDS011;3820;51.098;13.716;2022-10-16T02:00:17;8.95;;;4.50;;
7557;SDS011;3820;51.098;13.716;2022-10-16T02:02:46;11.25;;;4.43;;
7557;SDS011;3820;51.098;13.716;2022-10-16T02:05:32;10.50;;;4.68;;
7557;SDS011;3820;51.098;13.716;2022-10-16T02:08:03;8.50;;;4.50;;
7557;SDS011;3820;51.098;13.716;2022-10-16T02:10:31;8.85;;;4.63;;
7557;SDS011;3820;51.098;13.716;2022-10-16T02:13:00;7.90;;;4.63;;
7557;SDS011;3820;51.098;13.716;2022-10-16T02:15:32;9.32;;;4.32;;
7557;SDS011;3820;51.098;13.716;2022-10-16T02:17:59;7.80;;;4.07;;
7557;SDS011;3820;51.098;13.716;2022-10-16T02:20:27;9.07;;;4.32;;
7557;SDS011;3820;51.098;13.716;2022-10-16T02:22:54;8.02;;;4.32;;
7557;SDS011;3820;51.098;13.716;2022-10-16T02:30:21;7.72;;;4.43;;
7557;SDS011;3820;51.098;13.716;2022-10-16T02:32:53;7.25;;;4.63;;
7557;SDS011;3820;51.098;13.716;2022-10-16T02:35:20;7.63;;;4.32;;
7557;SDS011;3820;51.098;13.716;2022-10-16T02:37:48;7.60;;;4.38;;
7557;SDS011;3820;51.098;13.716;2022-10-16T02:40:16;10.73;;;4.90;;
7557;SDS011;3820;51.098;13.716;2022-10-16T02:42:50;10.00;;;5.20;;
7557;SDS011;3820;51.098;13.716;2022-10-16T02:45:18;9.60;;;4.57;;
7557;SDS011;3820;51.098;13.716;2022-10-16T02:47:45;9.13;;;5.07;;
7557;SDS011;3820;51.098;13.716;2022-10-16T02:50:11;10.35;;;4.80;;
7557;SDS011;3820;51.098;13.716;2022-10-16T02:52:38;7.60;;;4.55;;
7557;SDS011;3820;51.098;13.716;2022-10-16T02:55:04;8.63;;;4.70;;
7557;SDS011;3820;51.098;13.716;2022-10-16T02:57:31;7.20;;;4.30;;
7557;SDS011;3820;51.098;13.716;2022-10-16T02:59:58;8.52;;;4.40;;
7557;SDS011;3820;51.098;13.716;2022-10-16T03:02:25;12.63;;;5.07;;
7557;SDS011;3820;51.098;13.716;2022-10-16T03:04:51;8.73;;;4.80;;
7557;SDS011;3820;51.098;13.716;2022-10-16T03:07:18;10.98;;;5.25;;
7557;SDS011;3820;51.098;13.716;2022-10-16T03:09:44;9.02;;;5.13;;
7557;SDS011;3820;51.098;13.716;2022-10-16T03:12:11;8.15;;;4.72;;
7557;SDS011;3820;51.098;13.716;2022-10-16T03:14:38;8.57;;;5.10;;
7557;SDS011;3820;51.098;13.716;2022-10-16T03:17:05;8.20;;;4.82;;
7557;SDS011;3820;51.098;13.716;2022-10-16T03:19:32;6.68;;;4.50;;
7557;SDS011;3820;51.098;13.716;2022-10-16T03:21:59;9.23;;;4.68;;
7557;SDS011;3820;51.098;13.716;2022-10-16T03:24:25;8.80;;;5.07;;
7557;SDS011;3820;51.098;13.716;2022-10-16T03:26:51;7.13;;;4.10;;
7557;SDS011;3820;51.098;13.716;2022-10-16T03:29:18;7.70;;;4.63;;
7557;SDS011;3820;51.098;13.716;2022-10-16T03:31:44;6.40;;;3.85;;
7557;SDS011;3820;51.098;13.716;2022-10-16T03:34:11;8.88;;;4.90;;
7557;SDS011;3820;51.098;13.716;2022-10-16T03:36:38;7.13;;;4.10;;
7557;SDS011;3820;51.098;13.716;2022-10-16T03:39:04;9.55;;;4.70;;
7557;SDS011;3820;51.098;13.716;2022-10-16T03:41:31;7.93;;;4.20;;
7557;SDS011;3820;51.098;13.716;2022-10-16T03:43:57;6.85;;;4.13;;
7557;SDS011;3820;51.098;13.716;2022-10-16T03:46:24;8.77;;;5.07;;
7557;SDS011;3820;51.098;13.716;2022-10-16T03:48:50;7.40;;;4.03;;
7557;SDS011;3820;51.098;13.716;2022-10-16T03:51:17;8.98;;;5.05;;
7557;SDS011;3820;51.098;13.716;2022-10-16T03:53:43;8.55;;;4.10;;
7557;SDS011;3820;51.098;13.716;2022-10-16T03:56:10;10.38;;;4.53;;
7557;SDS011;3820;51.098;13.716;2022-10-16T03:58:36;6.85;;;4.03;;
7557;SDS011;3820;51.098;13.716;2022-10-16T04:01:03;7.70;;;4.30;;
7557;SDS011;3820;51.098;13.716;2022-10-16T04:03:29;7.28;;;4.68;;
7557;SDS011;3820;51.098;13.716;2022-10-16T04:05:56;7.55;;;4.22;;
7557;SDS011;3820;51.098;13.716;2022-10-16T04:08:22;7.10;;;4.15;;
7557;SDS011;3820;51.098;13.716;2022-10-16T04:10:49;6.72;;;3.42;;
7557;SDS011;3820;51.098;13.716;2022-10-16T04:13:15;7.40;;;4.47;;
7557;SDS011;3820;51.098;13.716;2022-10-16T04:15:44;6.95;;;3.78;;
7557;SDS011;3820;51.098;13.716;2022-10-16T04:18:11;6.82;;;4.45;;
7557;SDS011;3820;51.098;13.716;2022-10-16T04:20:38;7.72;;;4.20;;
7557;SDS011;3820;51.098;13.716;2022-10-16T04:23:04;8.75;;;5.30;;
7557;SDS011;3820;51.098;13.716;2022-10-16T04:25:31;6.88;;;3.97;;
7557;SDS011;3820;51.098;13.716;2022-10-16T04:27:57;7.25;;;4.43;;
7557;SDS011;3820;51.098;13.716;2022-10-16T04:30:24;8.93;;;4.15;;
7557;SDS011;3820;51.098;13.716;2022-10-16T04:32:51;8.32;;;4.53;;
7557;SDS011;3820;51.098;13.716;2022-10-16T04:35:18;5.97;;;3.78;;
7557;SDS011;3820;51.098;13.716;2022-10-16T04:37:46;8.55;;;4.43;;
7557;SDS011;3820;51.098;13.716;2022-10-16T04:40:13;7.90;;;4.38;;
7557;SDS011;3820;51.098;13.716;2022-10-16T04:42:40;7.75;;;4.30;;
7557;SDS011;3820;51.098;13.716;2022-10-16T04:45:07;9.07;;;4.50;;
7557;SDS011;3820;51.098;13.716;2022-10-16T04:47:39;8.15;;;5.10;;
7557;SDS011;3820;51.098;13.716;2022-10-16T04:50:06;9.35;;;4.85;;
7557;SDS011;3820;51.098;13.716;2022-10-16T04:52:33;9.02;;;5.28;;
7557;SDS011;3820;51.098;13.716;2022-10-16T04:55:00;10.75;;;5.15;;
7557;SDS011;3820;51.098;13.716;2022-10-16T04:57:29;9.77;;;5.53;;
7557;SDS011;3820;51.098;13.716;2022-10-16T04:59:55;9.25;;;5.38;;
7557;SDS011;3820;51.098;13.716;2022-10-16T05:02:22;9.35;;;5.07;;
7557;SDS011;3820;51.098;13.716;2022-10-16T05:04:48;8.70;;;4.88;;
7557;SDS011;3820;51.098;13.716;2022-10-16T05:07:15;9.23;;;4.78;;
7557;SDS011;3820;51.098;13.716;2022-10-16T05:09:41;9.50;;;4.65;;
7557;SDS011;3820;51.098;13.716;2022-10-16T05:12:08;7.55;;;4.68;;
7557;SDS011;3820;51.098;13.716;2022-10-16T05:14:34;9.93;;;5.43;;
7557;SDS011;3820;51.098;13.716;2022-10-16T05:17:01;9.88;;;5.30;;
7557;SDS011;3820;51.098;13.716;2022-10-16T05:19:27;8.93;;;5.25;;
7557;SDS011;3820;51.098;13.716;2022-10-16T05:21:54;9.18;;;4.55;;
7557;SDS011;3820;51.098;13.716;2022-10-16T05:24:21;7.28;;;4.65;;
7557;SDS011;3820;51.098;13.716;2022-10-16T05:26:47;9.00;;;4.85;;
7557;SDS011;3820;51.098;13.716;2022-10-16T05:29:14;9.85;;;5.13;;
7557;SDS011;3820;51.098;13.716;2022-10-16T05:31:42;8.32;;;5.00;;
7557;SDS011;3820;51.098;13.716;2022-10-16T05:34:09;9.30;;;5.15;;
7557;SDS011;3820;51.098;13.716;2022-10-16T05:36:35;8.35;;;5.05;;
7557;SDS011;3820;51.098;13.716;2022-10-16T05:39:02;7.85;;;4.45;;
7557;SDS011;3820;51.098;13.716;2022-10-16T05:41:29;7.68;;;4.18;;
7557;SDS011;3820;51.098;13.716;2022-10-16T05:43:55;7.30;;;4.50;;
7557;SDS011;3820;51.098;13.716;2022-10-16T05:46:21;8.10;;;4.95;;
7557;SDS011;3820;51.098;13.716;2022-10-16T05:48:48;8.18;;;4.78;;
7557;SDS011;3820;51.098;13.716;2022-10-16T05:51:14;11.40;;;5.32;;
7557;SDS011;3820;51.098;13.716;2022-10-16T05:53:41;9.68;;;5.53;;
7557;SDS011;3820;51.098;13.716;2022-10-16T05:56:09;7.35;;;4.13;;
7557;SDS011;3820;51.098;13.716;2022-10-16T05:58:38;10.38;;;4.65;;
7557;SDS011;3820;51.098;13.716;2022-10-16T06:01:09;10.82;;;4.88;;
7557;SDS011;3820;51.098;13.716;2022-10-16T06:03:39;7.90;;;4.68;;
7557;SDS011;3820;51.098;13.716;2022-10-16T06:06:16;9.25;;;5.03;;
7557;SDS011;3820;51.098;13.716;2022-10-16T06:08:44;13.98;;;4.70;;
7557;SDS011;3820;51.098;13.716;2022-10-16T06:11:13;9.60;;;4.93;;
7557;SDS011;3820;51.098;13.716;2022-10-16T06:13:43;9.98;;;4.93;;
7557;SDS011;3820;51.098;13.716;2022-10-16T06:16:12;7.43;;;4.35;;
7557;SDS011;3820;51.098;13.716;2022-10-16T06:18:38;9.45;;;4.90;;
7557;SDS011;3820;51.098;13.716;2022-10-16T06:21:09;7.40;;;4.05;;
7557;SDS011;3820;51.098;13.716;2022-10-16T06:23:36;8.45;;;4.50;;
7557;SDS011;3820;51.098;13.716;2022-10-16T06:26:10;8.48;;;4.47;;
7557;SDS011;3820;51.098;13.716;2022-10-16T06:28:38;9.88;;;5.22;;
7557;SDS011;3820;51.098;13.716;2022-10-16T06:31:05;8.27;;;4.80;;
7557;SDS011;3820;51.098;13.716;2022-10-16T06:33:34;7.43;;;4.88;;
7557;SDS011;3820;51.098;13.716;2022-10-16T06:36:05;8.40;;;4.70;;
7557;SDS011;3820;51.098;13.716;2022-10-16T06:38:32;7.85;;;4.13;;
7557;SDS011;3820;51.098;13.716;2022-10-16T06:40:58;8.65;;;4.57;;
7557;SDS011;3820;51.098;13.716;2022-10-16T06:43:25;6.40;;;4.47;;
7557;SDS011;3820;51.098;13.716;2022-10-16T06:45:55;9.95;;;4.65;;
7557;SDS011;3820;51.098;13.716;2022-10-16T06:48:22;7.72;;;5.03;;
7557;SDS011;3820;51.098;13.716;2022-10-16T06:53:31;9.40;;;5.47;;
7557;SDS011;3820;51.098;13.716;2022-10-16T06:56:13;8.50;;;5.15;;
7557;SDS011;3820;51.098;13.716;2022-10-16T06:58:53;10.90;;;4.45;;
7557;SDS011;3820;51.098;13.716;2022-10-16T07:01:20;8.30;;;4.65;;
7557;SDS011;3820;51.098;13.716;2022-10-16T07:03:48;8.95;;;4.70;;
7557;SDS011;3820;51.098;13.716;2022-10-16T07:06:17;9.60;;;4.70;;
7557;SDS011;3820;51.098;13.716;2022-10-16T07:08:45;8.25;;;4.40;;
7557;SDS011;3820;51.098;13.716;2022-10-16T07:11:13;8.45;;;4.95;;
7557;SDS011;3820;51.098;13.716;2022-10-16T07:13:43;7.68;;;4.82;;
7557;SDS011;3820;51.098;13.716;2022-10-16T07:16:19;9.43;;;4.60;;
7557;SDS011;3820;51.098;13.716;2022-10-16T07:18:47;8.07;;;4.32;;
7557;SDS011;3820;51.098;13.716;2022-10-16T07:21:16;8.82;;;5.43;;
7557;SDS011;3820;51.098;13.716;2022-10-16T07:23:49;7.38;;;5.15;;
7557;SDS011;3820;51.098;13.716;2022-10-16T07:26:19;8.80;;;5.22;;
7557;SDS011;3820;51.098;13.716;2022-10-16T07:28:45;6.90;;;4.28;;
7557;SDS011;3820;51.098;13.716;2022-10-16T07:31:13;7.45;;;4.25;;
7557;SDS011;3820;51.098;13.716;2022-10-16T07:33:41;8.57;;;4.72;;
7557;SDS011;3820;51.098;13.716;2022-10-16T07:36:09;8.18;;;4.90;;
7557;SDS011;3820;51.098;13.716;2022-10-16T07:38:41;8.98;;;4.57;;
7557;SDS011;3820;51.098;13.716;2022-10-16T07:41:10;8.77;;;4.68;;
7557;SDS011;3820;51.098;13.716;2022-10-16T07:43:38;9.02;;;5.22;;
7557;SDS011;3820;51.098;13.716;2022-10-16T07:46:04;10.90;;;5.57;;
7557;SDS011;3820;51.098;13.716;2022-10-16T07:48:32;10.13;;;5.28;;
7557;SDS011;3820;51.098;13.716;2022-10-16T07:51:01;9.85;;;5.32;;
7557;SDS011;3820;51.098;13.716;2022-10-16T07:53:28;9.38;;;5.20;;
7557;SDS011;3820;51.098;13.716;2022-10-16T07:55:58;8.30;;;4.60;;
7557;SDS011;3820;51.098;13.716;2022-10-16T07:58:26;8.30;;;4.85;;
7557;SDS011;3820;51.098;13.716;2022-10-16T08:00:54;7.40;;;4.40;;
7557;SDS011;3820;51.098;13.716;2022-10-16T08:03:21;6.57;;;3.88;;
7557;SDS011;3820;51.098;13.716;2022-10-16T08:05:48;7.63;;;4.68;;
7557;SDS011;3820;51.098;13.716;2022-10-16T08:08:15;8.00;;;4.80;;
7557;SDS011;3820;51.098;13.716;2022-10-16T08:10:42;7.07;;;4.30;;
7557;SDS011;3820;51.098;13.716;2022-10-16T08:13:09;6.03;;;3.85;;
7557;SDS011;3820;51.098;13.716;2022-10-16T08:15:36;9.18;;;4.15;;
7557;SDS011;3820;51.098;13.716;2022-10-16T08:18:03;7.63;;;4.93;;
7557;SDS011;3820;51.098;13.716;2022-10-16T08:20:30;5.85;;;3.85;;
7557;SDS011;3820;51.098;13.716;2022-10-16T08:22:58;7.03;;;4.38;;
7557;SDS011;3820;51.098;13.716;2022-10-16T08:25:25;8.25;;;4.50;;
7557;SDS011;3820;51.098;13.716;2022-10-16T08:27:52;6.90;;;4.50;;
7557;SDS011;3820;51.098;13.716;2022-10-16T08:30:19;10.82;;;5.22;;
7557;SDS011;3820;51.098;13.716;2022-10-16T08:32:46;5.60;;;4.03;;
7557;SDS011;3820;51.098;13.716;2022-10-16T08:35:13;6.53;;;3.40;;
7557;SDS011;3820;51.098;13.716;2022-10-16T08:37:41;5.50;;;3.65;;
7557;SDS011;3820;51.098;13.716;2022-10-16T08:40:18;6.13;;;4.30;;
7557;SDS011;3820;51.098;13.716;2022-10-16T08:42:50;7.30;;;4.50;;
7557;SDS011;3820;51.098;13.716;2022-10-16T08:48:10;5.60;;;3.75;;
7557;SDS011;3820;51.098;13.716;2022-10-16T08:50:38;6.00;;;3.92;;
7557;SDS011;3820;51.098;13.716;2022-10-16T08:53:05;6.18;;;4.03;;
7557;SDS011;3820;51.098;13.716;2022-10-16T08:58:13;5.47;;;3.35;;
7557;SDS011;3820;51.098;13.716;2022-10-16T09:00:40;4.18;;;2.83;;
7557;SDS011;3820;51.098;13.716;2022-10-16T09:06:16;4.55;;;2.78;;
7557;SDS011;3820;51.098;13.716;2022-10-16T09:11:41;4.72;;;2.40;;
7557;SDS011;3820;51.098;13.716;2022-10-16T09:17:27;3.00;;;2.28;;
7557;SDS011;3820;51.098;13.716;2022-10-16T09:20:19;3.33;;;2.25;;
7557;SDS011;3820;51.098;13.716;2022-10-16T09:23:00;2.92;;;2.10;;
7557;SDS011;3820;51.098;13.716;2022-10-16T09:25:36;2.45;;;1.90;;
7557;SDS011;3820;51.098;13.716;2022-10-16T09:28:05;1.98;;;1.50;;
7557;SDS011;3820;51.098;13.716;2022-10-16T09:30:32;2.35;;;1.77;;
7557;SDS011;3820;51.098;13.716;2022-10-16T09:32:58;1.73;;;1.48;;
7557;SDS011;3820;51.098;13.716;2022-10-16T09:35:32;1.52;;;1.35;;
7557;SDS011;3820;51.098;13.716;2022-10-16T09:38:01;2.50;;;1.77;;
7557;SDS011;3820;51.098;13.716;2022-10-16T09:40:29;1.85;;;1.48;;
7557;SDS011;3820;51.098;13.716;2022-10-16T09:43:01;1.88;;;1.55;;
7557;SDS011;3820;51.098;13.716;2022-10-16T09:45:30;2.03;;;1.75;;
7557;SDS011;3820;51.098;13.716;2022-10-16T09:47:56;1.40;;;1.10;;
7557;SDS011;3820;51.098;13.716;2022-10-16T09:50:24;2.25;;;1.40;;
7557;SDS011;3820;51.098;13.716;2022-10-16T09:55:32;1.30;;;1.20;;
7557;SDS011;3820;51.098;13.716;2022-10-16T09:57:58;1.42;;;1.13;;
7557;SDS011;3820;51.098;13.716;2022-10-16T10:00:25;1.27;;;1.02;;
7557;SDS011;3820;51.098;13.716;2022-10-16T10:02:52;3.20;;;1.25;;
7557;SDS011;3820;51.098;13.716;2022-10-16T10:05:29;1.30;;;1.20;;
7557;SDS011;3820;51.098;13.716;2022-10-16T10:07:59;1.40;;;1.10;;
7557;SDS011;3820;51.098;13.716;2022-10-16T10:10:30;1.77;;;1.40;;
7557;SDS011;3820;51.098;13.716;2022-10-16T10:12:57;1.20;;;1.10;;
7557;SDS011;3820;51.098;13.716;2022-10-16T10:15:24;1.65;;;1.23;;
7557;SDS011;3820;51.098;13.716;2022-10-16T10:17:53;7.95;;;1.10;;
7557;SDS011;3820;51.098;13.716;2022-10-16T10:22:50;0.95;;;0.75;;
7557;SDS011;3820;51.098;13.716;2022-10-16T10:33:46;0.30;;;0.30;;
7557;SDS011;3820;51.098;13.716;2022-10-16T10:36:30;0.35;;;0.35;;
7557;SDS011;3820;51.098;13.716;2022-10-16T10:39:05;0.40;;;0.40;;
7557;SDS011;3820;51.098;13.716;2022-10-16T10:47:26;0.30;;;0.30;;
7557;SDS011;3820;51.098;13.716;2022-10-16T10:50:02;0.40;;;0.40;;
7557;SDS011;3820;51.098;13.716;2022-10-16T10:52:43;0.43;;;0.40;;
7557;SDS011;3820;51.098;13.716;2022-10-16T10:55:20;0.60;;;0.40;;
7557;SDS011;3820;51.098;13.716;2022-10-16T10:57:56;0.30;;;0.30;;
7557;SDS011;3820;51.098;13.716;2022-10-16T11:06:06;0.50;;;0.50;;
7557;SDS011;3820;51.098;13.716;2022-10-16T11:08:40;2.15;;;0.70;;
7557;SDS011;3820;51.098;13.716;2022-10-16T11:11:17;0.57;;;0.38;;
7557;SDS011;3820;51.098;13.716;2022-10-16T11:13:55;0.40;;;0.40;;
7557;SDS011;3820;51.098;13.716;2022-10-16T11:19:01;0.30;;;0.30;;
7557;SDS011;3820;51.098;13.716;2022-10-16T11:21:31;0.17;;;0.17;;
7557;SDS011;3820;51.098;13.716;2022-10-16T11:24:23;0.40;;;0.30;;
7557;SDS011;3820;51.098;13.716;2022-10-16T11:26:59;0.30;;;0.30;;
7557;SDS011;3820;51.098;13.716;2022-10-16T11:29:30;0.40;;;0.40;;
7557;SDS011;3820;51.098;13.716;2022-10-16T11:32:04;0.20;;;0.20;;
7557;SDS011;3820;51.098;13.716;2022-10-16T11:34:45;0.35;;;0.28;;
7557;SDS011;3820;51.098;13.716;2022-10-16T11:37:19;0.30;;;0.30;;
7557;SDS011;3820;51.098;13.716;2022-10-16T11:39:50;0.40;;;0.40;;
7557;SDS011;3820;51.098;13.716;2022-10-16T11:42:36;0.30;;;0.30;;
7557;SDS011;3820;51.098;13.716;2022-10-16T11:45:21;0.40;;;0.40;;
7557;SDS011;3820;51.098;13.716;2022-10-16T11:48:07;0.30;;;0.30;;
7557;SDS011;3820;51.098;13.716;2022-10-16T11:51:14;0.30;;;0.20;;
7557;SDS011;3820;51.098;13.716;2022-10-16T11:56:13;0.20;;;0.20;;
7557;SDS011;3820;51.098;13.716;2022-10-16T12:01:40;0.57;;;0.35;;
7557;SDS011;3820;51.098;13.716;2022-10-16T12:06:56;0.20;;;0.20;;
7557;SDS011;3820;51.098;13.716;2022-10-16T12:09:28;0.20;;;0.20;;
7557;SDS011;3820;51.098;13.716;2022-10-16T12:11:57;0.30;;;0.30;;
7557;SDS011;3820;51.098;13.716;2022-10-16T12:16:54;0.43;;;0.30;;
7557;SDS011;3820;51.098;13.716;2022-10-16T12:19:23;0.32;;;0.30;;
7557;SDS011;3820;51.098;13.716;2022-10-16T12:21:51;0.30;;;0.30;;
7557;SDS011;3820;51.098;13.716;2022-10-16T12:24:39;0.50;;;0.40;;
7557;SDS011;3820;51.098;13.716;2022-10-16T12:27:22;0.82;;;0.50;;
7557;SDS011;3820;51.098;13.716;2022-10-16T12:29:55;0.40;;;0.40;;
7557;SDS011;3820;51.098;13.716;2022-10-16T12:32:33;0.65;;;0.38;;
7557;SDS011;3820;51.098;13.716;2022-10-16T12:35:26;1.02;;;0.50;;
7557;SDS011;3820;51.098;13.716;2022-10-16T12:38:03;0.38;;;0.38;;
7557;SDS011;3820;51.098;13.716;2022-10-16T12:40:32;0.80;;;0.80;;
7557;SDS011;3820;51.098;13.716;2022-10-16T12:43:10;0.60;;;0.50;;
7557;SDS011;3820;51.098;13.716;2022-10-16T12:45:38;0.63;;;0.40;;
7557;SDS011;3820;51.098;13.716;2022-10-16T12:48:04;0.30;;;0.30;;
7557;SDS011;3820;51.098;13.716;2022-10-16T12:50:45;0.30;;;0.30;;
7557;SDS011;3820;51.098;13.716;2022-10-16T12:53:17;0.30;;;0.28;;
7557;SDS011;3820;51.098;13.716;2022-10-16T12:55:52;0.40;;;0.38;;
7557;SDS011;3820;51.098;13.716;2022-10-16T13:00:57;0.40;;;0.40;;
7557;SDS011;3820;51.098;13.716;2022-10-16T13:08:52;0.40;;;0.40;;
7557;SDS011;3820;51.098;13.716;2022-10-16T13:14:41;0.20;;;0.20;;
7557;SDS011;3820;51.098;13.716;2022-10-16T13:23:21;0.40;;;0.40;;
7557;SDS011;3820;51.098;13.716;2022-10-16T13:28:37;0.40;;;0.40;;
7557;SDS011;3820;51.098;13.716;2022-10-16T13:31:05;0.57;;;0.43;;
7557;SDS011;3820;51.098;13.716;2022-10-16T13:33:40;0.32;;;0.32;;
7557;SDS011;3820;51.098;13.716;2022-10-16T13:36:21;1.27;;;0.30;;
7557;SDS011;3820;51.098;13.716;2022-10-16T13:38:58;0.30;;;0.30;;
7557;SDS011;3820;51.098;13.716;2022-10-16T13:41:28;0.38;;;0.38;;
7557;SDS011;3820;51.098;13.716;2022-10-16T13:43:54;0.70;;;0.40;;
7557;SDS011;3820;51.098;13.716;2022-10-16T13:46:23;0.40;;;0.40;;
7557;SDS011;3820;51.098;13.716;2022-10-16T13:49:01;0.30;;;0.30;;
7557;SDS011;3820;51.098;13.716;2022-10-16T13:51:29;0.40;;;0.40;;
7557;SDS011;3820;51.098;13.716;2022-10-16T13:53:57;0.50;;;0.50;;
7557;SDS011;3820;51.098;13.716;2022-10-16T13:56:25;0.50;;;0.50;;
7557;SDS011;3820;51.098;13.716;2022-10-16T13:59:22;0.60;;;0.52;;
7557;SDS011;3820;51.098;13.716;2022-10-16T14:01:53;0.35;;;0.30;;
7557;SDS011;3820;51.098;13.716;2022-10-16T14:04:21;2.20;;;0.50;;
7557;SDS011;3820;51.098;13.716;2022-10-16T14:06:49;0.55;;;0.52;;
7557;SDS011;3820;51.098;13.716;2022-10-16T14:12:00;0.30;;;0.30;;
7557;SDS011;3820;51.098;13.716;2022-10-16T14:14:32;0.93;;;0.52;;
7557;SDS011;3820;51.098;13.716;2022-10-16T14:17:01;0.93;;;0.65;;
7557;SDS011;3820;51.098;13.716;2022-10-16T14:19:29;0.40;;;0.40;;
7557;SDS011;3820;51.098;13.716;2022-10-16T14:21:55;1.90;;;0.52;;
7557;SDS011;3820;51.098;13.716;2022-10-16T14:24:25;0.50;;;0.50;;
7557;SDS011;3820;51.098;13.716;2022-10-16T14:26:59;0.40;;;0.40;;
7557;SDS011;3820;51.098;13.716;2022-10-16T14:29:27;0.40;;;0.40;;
7557;SDS011;3820;51.098;13.716;2022-10-16T14:31:55;0.40;;;0.40;;
7557;SDS011;3820;51.098;13.716;2022-10-16T14:34:36;0.60;;;0.60;;
7557;SDS011;3820;51.098;13.716;2022-10-16T14:37:08;1.05;;;0.50;;
7557;SDS011;3820;51.098;13.716;2022-10-16T14:39:50;0.50;;;0.50;;
7557;SDS011;3820;51.098;13.716;2022-10-16T14:42:17;0.40;;;0.40;;
7557;SDS011;3820;51.098;13.716;2022-10-16T14:44:45;0.50;;;0.50;;
7557;SDS011;3820;51.098;13.716;2022-10-16T14:47:13;0.60;;;0.60;;
7557;SDS011;3820;51.098;13.716;2022-10-16T14:49:42;0.45;;;0.40;;
7557;SDS011;3820;51.098;13.716;2022-10-16T14:52:10;0.70;;;0.50;;
7557;SDS011;3820;51.098;13.716;2022-10-16T14:54:37;0.77;;;0.60;;
7557;SDS011;3820;51.098;13.716;2022-10-16T14:57:04;0.65;;;0.65;;
7557;SDS011;3820;51.098;13.716;2022-10-16T14:59:40;0.52;;;0.52;;
7557;SDS011;3820;51.098;13.716;2022-10-16T15:04:56;0.85;;;0.70;;
7557;SDS011;3820;51.098;13.716;2022-10-16T15:07:23;1.00;;;0.70;;
7557;SDS011;3820;51.098;13.716;2022-10-16T15:09:51;0.73;;;0.68;;
7557;SDS011;3820;51.098;13.716;2022-10-16T15:12:18;0.52;;;0.50;;
7557;SDS011;3820;51.098;13.716;2022-10-16T15:14:44;0.50;;;0.50;;
7557;SDS011;3820;51.098;13.716;2022-10-16T15:17:11;1.85;;;0.60;;
7557;SDS011;3820;51.098;13.716;2022-10-16T15:19:37;0.55;;;0.45;;
7557;SDS011;3820;51.098;13.716;2022-10-16T15:22:04;0.65;;;0.60;;
7557;SDS011;3820;51.098;13.716;2022-10-16T15:24:30;0.80;;;0.80;;
7557;SDS011;3820;51.098;13.716;2022-10-16T15:26:57;0.55;;;0.55;;
7557;SDS011;3820;51.098;13.716;2022-10-16T15:29:23;0.75;;;0.55;;
7557;SDS011;3820;51.098;13.716;2022-10-16T15:31:50;0.93;;;0.60;;
7557;SDS011;3820;51.098;13.716;2022-10-16T15:34:16;0.63;;;0.60;;
7557;SDS011;3820;51.098;13.716;2022-10-16T15:36:45;0.65;;;0.65;;
7557;SDS011;3820;51.098;13.716;2022-10-16T15:39:12;0.98;;;0.70;;
7557;SDS011;3820;51.098;13.716;2022-10-16T15:41:40;1.10;;;0.82;;
7557;SDS011;3820;51.098;13.716;2022-10-16T15:44:07;0.60;;;0.60;;
7557;SDS011;3820;51.098;13.716;2022-10-16T15:46:34;1.02;;;0.70;;
7557;SDS011;3820;51.098;13.716;2022-10-16T15:49:00;0.45;;;0.40;;
7557;SDS011;3820;51.098;13.716;2022-10-16T15:51:27;3.00;;;0.57;;
7557;SDS011;3820;51.098;13.716;2022-10-16T15:53:55;0.50;;;0.50;;
7557;SDS011;3820;51.098;13.716;2022-10-16T15:56:23;0.60;;;0.40;;
7557;SDS011;3820;51.098;13.716;2022-10-16T15:58:51;1.23;;;0.75;;
7557;SDS011;3820;51.098;13.716;2022-10-16T16:01:18;0.77;;;0.45;;
7557;SDS011;3820;51.098;13.716;2022-10-16T16:03:45;0.60;;;0.60;;
7557;SDS011;3820;51.098;13.716;2022-10-16T16:06:12;0.70;;;0.63;;
7557;SDS011;3820;51.098;13.716;2022-10-16T16:08:39;1.10;;;0.50;;
7557;SDS011;3820;51.098;13.716;2022-10-16T16:11:10;0.98;;;0.68;;
7557;SDS011;3820;51.098;13.716;2022-10-16T16:13:38;1.23;;;0.90;;
7557;SDS011;3820;51.098;13.716;2022-10-16T16:16:09;0.80;;;0.70;;
7557;SDS011;3820;51.098;13.716;2022-10-16T16:18:40;16.80;;;1.85;;
7557;SDS011;3820;51.098;13.716;2022-10-16T16:21:13;1.52;;;1.00;;
7557;SDS011;3820;51.098;13.716;2022-10-16T16:23:40;1.60;;;0.90;;
7557;SDS011;3820;51.098;13.716;2022-10-16T16:28:40;1.30;;;1.15;;
7557;SDS011;3820;51.098;13.716;2022-10-16T16:31:09;1.92;;;1.10;;
7557;SDS011;3820;51.098;13.716;2022-10-16T16:33:37;6.20;;;3.08;;
7557;SDS011;3820;51.098;13.716;2022-10-16T16:36:05;5.20;;;2.75;;
7557;SDS011;3820;51.098;13.716;2022-10-16T16:38:36;8.88;;;4.90;;
7557;SDS011;3820;51.098;13.716;2022-10-16T16:41:13;5.85;;;2.90;;
7557;SDS011;3820;51.098;13.716;2022-10-16T16:43:46;6.90;;;3.35;;
7557;SDS011;3820;51.098;13.716;2022-10-16T16:46:13;1.80;;;1.33;;
7557;SDS011;3820;51.098;13.716;2022-10-16T16:48:41;2.03;;;1.40;;
7557;SDS011;3820;51.098;13.716;2022-10-16T16:51:09;2.10;;;1.33;;
7557;SDS011;3820;51.098;13.716;2022-10-16T16:53:42;2.17;;;1.42;;